sensor_id;sensor_type;location;lat;lon;timestamp;P1;durP1;ratioP1;P2;durP2;ratioP2
56810;SDS011;42691;47.234;27.494;2022-11-20T00:03:34;21.10;;;16.50;;
56810;SDS011;42691;47.234;27.494;2022-11-20T00:06:00;23.00;;;17.23;;
56810;SDS011;42691;47.234;27.494;2022-11-20T00:08:27;23.52;;;17.60;;
56810;SDS011;42691;47.234;27.494;2022-11-20T00:10:52;36.28;;;18.58;;
56810;SDS011;42691;47.234;27.494;2022-11-20T00:13:18;20.08;;;16.70;;
56810;SDS011;42691;47.234;27.494;2022-11-20T00:15:43;20.05;;;17.15;;
56810;SDS011;42691;47.234;27.494;2022-11-20T00:18:08;17.60;;;15.85;;
56810;SDS011;42691;47.234;27.494;2022-11-20T00:20:34;19.90;;;15.55;;
56810;SDS011;42691;47.234;27.494;2022-11-20T00:22:59;16.48;;;14.57;;
56810;SDS011;42691;47.234;27.494;2022-11-20T00:25:25;22.98;;;18.77;;
56810;SDS011;42691;47.234;27.494;2022-11-20T00:27:50;24.02;;;20.25;;
56810;SDS011;42691;47.234;27.494;2022-11-20T00:30:15;18.48;;;15.85;;
56810;SDS011;42691;47.234;27.494;2022-11-20T00:32:41;24.25;;;19.42;;
56810;SDS011;42691;47.234;27.494;2022-11-20T00:35:06;20.77;;;16.20;;
56810;SDS011;42691;47.234;27.494;2022-11-20T00:37:32;14.90;;;13.15;;
56810;SDS011;42691;47.234;27.494;2022-11-20T00:39:57;21.75;;;15.68;;
56810;SDS011;42691;47.234;27.494;2022-11-20T00:42:23;16.17;;;14.48;;
56810;SDS011;42691;47.234;27.494;2022-11-20T00:44:48;16.83;;;15.10;;
56810;SDS011;42691;47.234;27.494;2022-11-20T00:47:14;13.95;;;12.20;;
56810;SDS011;42691;47.234;27.494;2022-11-20T00:49:39;13.20;;;11.93;;
56810;SDS011;42691;47.234;27.494;2022-11-20T00:52:04;14.23;;;10.45;;
56810;SDS011;42691;47.234;27.494;2022-11-20T00:54:30;16.42;;;13.63;;
56810;SDS011;42691;47.234;27.494;2022-11-20T00:56:55;17.23;;;13.73;;
56810;SDS011;42691;47.234;27.494;2022-11-20T00:59:21;15.55;;;13.77;;
56810;SDS011;42691;47.234;27.494;2022-11-20T01:01:46;18.02;;;12.20;;
56810;SDS011;42691;47.234;27.494;2022-11-20T01:04:11;18.17;;;13.27;;
56810;SDS011;42691;47.234;27.494;2022-11-20T01:06:37;15.77;;;13.45;;
56810;SDS011;42691;47.234;27.494;2022-11-20T01:09:05;18.58;;;14.60;;
56810;SDS011;42691;47.234;27.494;2022-11-20T01:11:36;15.75;;;11.68;;
56810;SDS011;42691;47.234;27.494;2022-11-20T01:14:03;16.42;;;11.90;;
56810;SDS011;42691;47.234;27.494;2022-11-20T01:16:31;17.55;;;13.40;;
56810;SDS011;42691;47.234;27.494;2022-11-20T01:18:59;15.05;;;13.60;;
56810;SDS011;42691;47.234;27.494;2022-11-20T01:21:27;20.27;;;12.65;;
56810;SDS011;42691;47.234;27.494;2022-11-20T01:23:57;12.82;;;11.52;;
56810;SDS011;42691;47.234;27.494;2022-11-20T01:26:24;15.32;;;11.15;;
56810;SDS011;42691;47.234;27.494;2022-11-20T01:28:51;15.15;;;11.40;;
56810;SDS011;42691;47.234;27.494;2022-11-20T01:31:21;13.63;;;11.82;;
56810;SDS011;42691;47.234;27.494;2022-11-20T01:33:49;9.57;;;8.23;;
56810;SDS011;42691;47.234;27.494;2022-11-20T01:36:16;11.20;;;8.88;;
56810;SDS011;42691;47.234;27.494;2022-11-20T01:38:44;12.10;;;8.73;;
56810;SDS011;42691;47.234;27.494;2022-11-20T01:41:10;13.10;;;9.93;;
56810;SDS011;42691;47.234;27.494;2022-11-20T01:43:56;13.00;;;9.40;;
56810;SDS011;42691;47.234;27.494;2022-11-20T01:46:22;15.77;;;10.27;;
56810;SDS011;42691;47.234;27.494;2022-11-20T01:48:49;14.20;;;11.35;;
56810;SDS011;42691;47.234;27.494;2022-11-20T01:51:39;10.85;;;8.57;;
56810;SDS011;42691;47.234;27.494;2022-11-20T01:54:19;14.35;;;9.85;;
56810;SDS011;42691;47.234;27.494;2022-11-20T01:56:50;10.00;;;8.30;;
56810;SDS011;42691;47.234;27.494;2022-11-20T01:59:19;8.93;;;7.53;;
56810;SDS011;42691;47.234;27.494;2022-11-20T02:01:47;13.90;;;7.75;;
56810;SDS011;42691;47.234;27.494;2022-11-20T02:04:13;10.77;;;7.05;;
56810;SDS011;42691;47.234;27.494;2022-11-20T02:09:11;10.73;;;6.63;;
56810;SDS011;42691;47.234;27.494;2022-11-20T02:11:37;12.85;;;8.00;;
56810;SDS011;42691;47.234;27.494;2022-11-20T02:14:02;10.10;;;8.57;;
56810;SDS011;42691;47.234;27.494;2022-11-20T02:16:32;7.30;;;5.43;;
56810;SDS011;42691;47.234;27.494;2022-11-20T02:19:00;9.13;;;5.95;;
56810;SDS011;42691;47.234;27.494;2022-11-20T02:24:14;7.82;;;5.93;;
56810;SDS011;42691;47.234;27.494;2022-11-20T02:26:58;9.50;;;5.40;;
56810;SDS011;42691;47.234;27.494;2022-11-20T02:34:53;4.60;;;3.45;;
56810;SDS011;42691;47.234;27.494;2022-11-20T02:37:19;6.55;;;4.47;;
56810;SDS011;42691;47.234;27.494;2022-11-20T02:39:46;5.72;;;4.45;;
56810;SDS011;42691;47.234;27.494;2022-11-20T02:42:14;5.53;;;3.92;;
56810;SDS011;42691;47.234;27.494;2022-11-20T02:44:40;4.93;;;3.13;;
56810;SDS011;42691;47.234;27.494;2022-11-20T02:47:05;5.82;;;4.22;;
56810;SDS011;42691;47.234;27.494;2022-11-20T02:49:31;7.38;;;4.57;;
56810;SDS011;42691;47.234;27.494;2022-11-20T02:51:56;5.97;;;4.07;;
56810;SDS011;42691;47.234;27.494;2022-11-20T02:54:22;6.80;;;4.82;;
56810;SDS011;42691;47.234;27.494;2022-11-20T02:56:48;6.78;;;4.80;;
56810;SDS011;42691;47.234;27.494;2022-11-20T02:59:13;9.60;;;5.45;;
56810;SDS011;42691;47.234;27.494;2022-11-20T03:01:38;5.28;;;3.88;;
56810;SDS011;42691;47.234;27.494;2022-11-20T03:04:04;5.30;;;4.03;;
56810;SDS011;42691;47.234;27.494;2022-11-20T03:06:29;6.45;;;4.38;;
56810;SDS011;42691;47.234;27.494;2022-11-20T03:08:55;6.70;;;4.40;;
56810;SDS011;42691;47.234;27.494;2022-11-20T03:11:20;7.28;;;4.35;;
56810;SDS011;42691;47.234;27.494;2022-11-20T03:13:46;7.03;;;4.78;;
56810;SDS011;42691;47.234;27.494;2022-11-20T03:16:12;10.80;;;5.80;;
56810;SDS011;42691;47.234;27.494;2022-11-20T03:18:43;7.78;;;5.30;;
56810;SDS011;42691;47.234;27.494;2022-11-20T03:21:09;7.45;;;5.10;;
56810;SDS011;42691;47.234;27.494;2022-11-20T03:23:37;9.07;;;6.20;;
56810;SDS011;42691;47.234;27.494;2022-11-20T03:26:22;8.45;;;5.95;;
56810;SDS011;42691;47.234;27.494;2022-11-20T03:28:53;6.57;;;5.07;;
56810;SDS011;42691;47.234;27.494;2022-11-20T03:31:32;7.47;;;6.22;;
56810;SDS011;42691;47.234;27.494;2022-11-20T03:33:59;10.98;;;6.65;;
56810;SDS011;42691;47.234;27.494;2022-11-20T03:36:26;8.02;;;6.50;;
56810;SDS011;42691;47.234;27.494;2022-11-20T03:38:55;13.35;;;8.95;;
56810;SDS011;42691;47.234;27.494;2022-11-20T03:41:25;12.70;;;6.80;;
56810;SDS011;42691;47.234;27.494;2022-11-20T03:43:53;11.05;;;8.40;;
56810;SDS011;42691;47.234;27.494;2022-11-20T03:46:20;12.32;;;8.32;;
56810;SDS011;42691;47.234;27.494;2022-11-20T03:48:45;10.48;;;7.53;;
56810;SDS011;42691;47.234;27.494;2022-11-20T03:51:12;9.50;;;6.05;;
56810;SDS011;42691;47.234;27.494;2022-11-20T03:53:43;10.90;;;9.35;;
56810;SDS011;42691;47.234;27.494;2022-11-20T03:56:10;9.60;;;8.45;;
56810;SDS011;42691;47.234;27.494;2022-11-20T03:58:37;11.18;;;9.23;;
56810;SDS011;42691;47.234;27.494;2022-11-20T04:01:08;14.30;;;10.30;;
56810;SDS011;42691;47.234;27.494;2022-11-20T04:03:42;12.55;;;10.00;;
56810;SDS011;42691;47.234;27.494;2022-11-20T04:06:13;14.50;;;11.05;;
56810;SDS011;42691;47.234;27.494;2022-11-20T04:08:40;11.07;;;9.20;;
56810;SDS011;42691;47.234;27.494;2022-11-20T04:11:14;14.07;;;9.90;;
56810;SDS011;42691;47.234;27.494;2022-11-20T04:13:40;12.57;;;9.77;;
56810;SDS011;42691;47.234;27.494;2022-11-20T04:16:06;12.68;;;9.18;;
56810;SDS011;42691;47.234;27.494;2022-11-20T04:18:33;13.35;;;10.55;;
56810;SDS011;42691;47.234;27.494;2022-11-20T04:20:58;11.95;;;9.23;;
56810;SDS011;42691;47.234;27.494;2022-11-20T04:23:24;12.98;;;10.23;;
56810;SDS011;42691;47.234;27.494;2022-11-20T04:25:50;13.25;;;11.18;;
56810;SDS011;42691;47.234;27.494;2022-11-20T04:28:16;12.32;;;9.35;;
56810;SDS011;42691;47.234;27.494;2022-11-20T04:30:41;10.27;;;8.65;;
56810;SDS011;42691;47.234;27.494;2022-11-20T04:33:07;15.15;;;10.23;;
56810;SDS011;42691;47.234;27.494;2022-11-20T04:35:36;13.07;;;8.95;;
56810;SDS011;42691;47.234;27.494;2022-11-20T04:38:02;12.98;;;9.55;;
56810;SDS011;42691;47.234;27.494;2022-11-20T04:40:28;13.05;;;10.43;;
56810;SDS011;42691;47.234;27.494;2022-11-20T04:42:54;15.70;;;10.63;;
56810;SDS011;42691;47.234;27.494;2022-11-20T04:45:20;11.90;;;10.05;;
56810;SDS011;42691;47.234;27.494;2022-11-20T04:47:47;13.48;;;9.13;;
56810;SDS011;42691;47.234;27.494;2022-11-20T04:50:12;11.57;;;8.13;;
56810;SDS011;42691;47.234;27.494;2022-11-20T04:52:38;13.77;;;8.88;;
56810;SDS011;42691;47.234;27.494;2022-11-20T04:55:03;14.95;;;9.98;;
56810;SDS011;42691;47.234;27.494;2022-11-20T04:57:29;9.98;;;8.45;;
56810;SDS011;42691;47.234;27.494;2022-11-20T04:59:54;12.20;;;9.85;;
56810;SDS011;42691;47.234;27.494;2022-11-20T05:02:20;11.07;;;8.80;;
56810;SDS011;42691;47.234;27.494;2022-11-20T05:04:45;12.60;;;9.23;;
56810;SDS011;42691;47.234;27.494;2022-11-20T05:07:11;17.05;;;9.85;;
56810;SDS011;42691;47.234;27.494;2022-11-20T05:09:36;14.00;;;9.32;;
56810;SDS011;42691;47.234;27.494;2022-11-20T05:12:02;12.20;;;9.68;;
56810;SDS011;42691;47.234;27.494;2022-11-20T05:14:27;13.90;;;8.32;;
56810;SDS011;42691;47.234;27.494;2022-11-20T05:16:53;13.80;;;10.45;;
56810;SDS011;42691;47.234;27.494;2022-11-20T05:19:18;10.30;;;7.35;;
56810;SDS011;42691;47.234;27.494;2022-11-20T05:21:44;11.38;;;8.05;;
56810;SDS011;42691;47.234;27.494;2022-11-20T05:24:09;10.90;;;9.02;;
56810;SDS011;42691;47.234;27.494;2022-11-20T05:26:35;9.45;;;7.70;;
56810;SDS011;42691;47.234;27.494;2022-11-20T05:29:00;10.48;;;9.40;;
56810;SDS011;42691;47.234;27.494;2022-11-20T05:31:26;11.48;;;9.00;;
56810;SDS011;42691;47.234;27.494;2022-11-20T05:33:51;14.20;;;10.13;;
56810;SDS011;42691;47.234;27.494;2022-11-20T05:36:17;10.68;;;8.20;;
56810;SDS011;42691;47.234;27.494;2022-11-20T05:38:43;12.02;;;8.82;;
56810;SDS011;42691;47.234;27.494;2022-11-20T05:41:10;10.57;;;9.13;;
56810;SDS011;42691;47.234;27.494;2022-11-20T05:43:38;9.82;;;8.15;;
56810;SDS011;42691;47.234;27.494;2022-11-20T05:46:04;11.45;;;8.98;;
56810;SDS011;42691;47.234;27.494;2022-11-20T05:48:31;10.27;;;9.02;;
56810;SDS011;42691;47.234;27.494;2022-11-20T05:51:01;11.43;;;7.93;;
56810;SDS011;42691;47.234;27.494;2022-11-20T05:53:28;21.60;;;9.20;;
56810;SDS011;42691;47.234;27.494;2022-11-20T05:56:00;10.07;;;8.77;;
56810;SDS011;42691;47.234;27.494;2022-11-20T05:58:27;16.63;;;11.03;;
56810;SDS011;42691;47.234;27.494;2022-11-20T06:00:53;10.18;;;7.60;;
56810;SDS011;42691;47.234;27.494;2022-11-20T06:03:19;18.00;;;10.05;;
56810;SDS011;42691;47.234;27.494;2022-11-20T06:05:44;13.32;;;8.95;;
56810;SDS011;42691;47.234;27.494;2022-11-20T06:08:09;11.57;;;8.23;;
56810;SDS011;42691;47.234;27.494;2022-11-20T06:10:35;13.73;;;9.25;;
56810;SDS011;42691;47.234;27.494;2022-11-20T06:13:00;10.52;;;9.48;;
56810;SDS011;42691;47.234;27.494;2022-11-20T06:15:26;14.85;;;10.88;;
56810;SDS011;42691;47.234;27.494;2022-11-20T06:17:52;21.58;;;14.98;;
56810;SDS011;42691;47.234;27.494;2022-11-20T06:20:18;17.38;;;14.40;;
56810;SDS011;42691;47.234;27.494;2022-11-20T06:22:44;19.30;;;11.15;;
56810;SDS011;42691;47.234;27.494;2022-11-20T06:25:09;13.77;;;10.40;;
56810;SDS011;42691;47.234;27.494;2022-11-20T06:27:35;14.55;;;9.93;;
56810;SDS011;42691;47.234;27.494;2022-11-20T06:30:00;12.20;;;9.35;;
56810;SDS011;42691;47.234;27.494;2022-11-20T06:32:26;21.88;;;18.90;;
56810;SDS011;42691;47.234;27.494;2022-11-20T06:34:51;21.38;;;19.48;;
56810;SDS011;42691;47.234;27.494;2022-11-20T06:37:17;13.02;;;10.35;;
56810;SDS011;42691;47.234;27.494;2022-11-20T06:39:42;13.77;;;9.70;;
56810;SDS011;42691;47.234;27.494;2022-11-20T06:42:07;17.25;;;10.45;;
56810;SDS011;42691;47.234;27.494;2022-11-20T06:44:33;14.70;;;11.35;;
56810;SDS011;42691;47.234;27.494;2022-11-20T06:46:59;17.25;;;11.32;;
56810;SDS011;42691;47.234;27.494;2022-11-20T06:49:25;14.98;;;11.80;;
56810;SDS011;42691;47.234;27.494;2022-11-20T06:51:50;26.33;;;13.18;;
56810;SDS011;42691;47.234;27.494;2022-11-20T06:54:16;16.27;;;13.52;;
56810;SDS011;42691;47.234;27.494;2022-11-20T06:56:41;24.42;;;17.10;;
56810;SDS011;42691;47.234;27.494;2022-11-20T06:59:07;21.10;;;18.65;;
56810;SDS011;42691;47.234;27.494;2022-11-20T07:01:32;16.73;;;14.70;;
56810;SDS011;42691;47.234;27.494;2022-11-20T07:03:58;19.65;;;17.30;;
56810;SDS011;42691;47.234;27.494;2022-11-20T07:06:23;14.90;;;10.45;;
56810;SDS011;42691;47.234;27.494;2022-11-20T07:08:50;12.93;;;11.57;;
56810;SDS011;42691;47.234;27.494;2022-11-20T07:11:17;11.68;;;8.35;;
56810;SDS011;42691;47.234;27.494;2022-11-20T07:13:42;10.82;;;8.32;;
56810;SDS011;42691;47.234;27.494;2022-11-20T07:16:08;10.32;;;8.23;;
56810;SDS011;42691;47.234;27.494;2022-11-20T07:18:34;9.77;;;8.63;;
56810;SDS011;42691;47.234;27.494;2022-11-20T07:21:00;11.50;;;8.98;;
56810;SDS011;42691;47.234;27.494;2022-11-20T07:23:27;14.23;;;8.65;;
56810;SDS011;42691;47.234;27.494;2022-11-20T07:25:52;10.75;;;7.18;;
56810;SDS011;42691;47.234;27.494;2022-11-20T07:28:18;9.45;;;6.75;;
56810;SDS011;42691;47.234;27.494;2022-11-20T07:30:48;9.30;;;7.50;;
56810;SDS011;42691;47.234;27.494;2022-11-20T07:33:15;10.20;;;8.15;;
56810;SDS011;42691;47.234;27.494;2022-11-20T07:35:40;12.23;;;10.82;;
56810;SDS011;42691;47.234;27.494;2022-11-20T07:38:06;15.85;;;10.70;;
56810;SDS011;42691;47.234;27.494;2022-11-20T07:40:31;32.92;;;29.38;;
56810;SDS011;42691;47.234;27.494;2022-11-20T07:42:56;46.35;;;41.78;;
56810;SDS011;42691;47.234;27.494;2022-11-20T07:45:23;35.67;;;31.90;;
56810;SDS011;42691;47.234;27.494;2022-11-20T07:47:49;29.95;;;26.85;;
56810;SDS011;42691;47.234;27.494;2022-11-20T07:50:15;10.93;;;9.65;;
56810;SDS011;42691;47.234;27.494;2022-11-20T07:52:41;11.85;;;9.02;;
56810;SDS011;42691;47.234;27.494;2022-11-20T07:55:06;10.20;;;7.93;;
56810;SDS011;42691;47.234;27.494;2022-11-20T07:57:33;12.93;;;8.43;;
56810;SDS011;42691;47.234;27.494;2022-11-20T07:59:58;12.30;;;9.07;;
56810;SDS011;42691;47.234;27.494;2022-11-20T08:02:24;9.10;;;7.28;;
56810;SDS011;42691;47.234;27.494;2022-11-20T08:04:49;14.68;;;10.13;;
56810;SDS011;42691;47.234;27.494;2022-11-20T08:07:15;14.98;;;10.77;;
56810;SDS011;42691;47.234;27.494;2022-11-20T08:09:41;9.82;;;8.85;;
56810;SDS011;42691;47.234;27.494;2022-11-20T08:12:06;9.85;;;7.88;;
56810;SDS011;42691;47.234;27.494;2022-11-20T08:14:50;12.52;;;8.85;;
56810;SDS011;42691;47.234;27.494;2022-11-20T08:17:16;14.68;;;10.85;;
56810;SDS011;42691;47.234;27.494;2022-11-20T08:19:41;9.82;;;7.60;;
56810;SDS011;42691;47.234;27.494;2022-11-20T08:22:07;15.82;;;12.93;;
56810;SDS011;42691;47.234;27.494;2022-11-20T08:24:32;17.85;;;11.57;;
56810;SDS011;42691;47.234;27.494;2022-11-20T08:26:58;12.38;;;9.57;;
56810;SDS011;42691;47.234;27.494;2022-11-20T08:29:24;12.73;;;11.07;;
56810;SDS011;42691;47.234;27.494;2022-11-20T08:31:51;15.20;;;11.57;;
56810;SDS011;42691;47.234;27.494;2022-11-20T08:34:16;12.98;;;10.57;;
56810;SDS011;42691;47.234;27.494;2022-11-20T08:36:42;14.40;;;10.98;;
56810;SDS011;42691;47.234;27.494;2022-11-20T08:39:07;14.35;;;12.63;;
56810;SDS011;42691;47.234;27.494;2022-11-20T08:41:33;13.93;;;12.40;;
56810;SDS011;42691;47.234;27.494;2022-11-20T08:43:59;13.15;;;11.70;;
56810;SDS011;42691;47.234;27.494;2022-11-20T08:46:27;14.75;;;11.65;;
56810;SDS011;42691;47.234;27.494;2022-11-20T08:48:58;15.27;;;11.70;;
56810;SDS011;42691;47.234;27.494;2022-11-20T08:51:23;11.75;;;10.55;;
56810;SDS011;42691;47.234;27.494;2022-11-20T08:53:48;13.98;;;10.20;;
56810;SDS011;42691;47.234;27.494;2022-11-20T08:56:14;12.27;;;8.50;;
56810;SDS011;42691;47.234;27.494;2022-11-20T08:58:40;11.90;;;10.13;;
56810;SDS011;42691;47.234;27.494;2022-11-20T09:01:06;8.82;;;7.63;;
56810;SDS011;42691;47.234;27.494;2022-11-20T09:03:31;13.10;;;10.18;;
56810;SDS011;42691;47.234;27.494;2022-11-20T09:05:58;15.23;;;9.23;;
56810;SDS011;42691;47.234;27.494;2022-11-20T09:08:25;13.15;;;10.07;;
56810;SDS011;42691;47.234;27.494;2022-11-20T09:10:51;13.73;;;10.38;;
56810;SDS011;42691;47.234;27.494;2022-11-20T09:13:17;12.77;;;10.82;;
56810;SDS011;42691;47.234;27.494;2022-11-20T09:15:43;12.13;;;9.68;;
56810;SDS011;42691;47.234;27.494;2022-11-20T09:18:08;12.20;;;9.65;;
56810;SDS011;42691;47.234;27.494;2022-11-20T09:20:34;13.98;;;10.00;;
56810;SDS011;42691;47.234;27.494;2022-11-20T09:23:00;15.88;;;10.88;;
56810;SDS011;42691;47.234;27.494;2022-11-20T09:25:25;19.15;;;14.80;;
56810;SDS011;42691;47.234;27.494;2022-11-20T09:27:55;17.58;;;14.60;;
56810;SDS011;42691;47.234;27.494;2022-11-20T09:30:23;21.30;;;16.98;;
56810;SDS011;42691;47.234;27.494;2022-11-20T09:32:50;19.00;;;16.30;;
56810;SDS011;42691;47.234;27.494;2022-11-20T09:35:15;23.30;;;20.58;;
56810;SDS011;42691;47.234;27.494;2022-11-20T09:37:42;21.23;;;16.90;;
56810;SDS011;42691;47.234;27.494;2022-11-20T09:40:16;25.08;;;19.13;;
56810;SDS011;42691;47.234;27.494;2022-11-20T09:51:59;24.55;;;18.88;;
56810;SDS011;42691;47.234;27.494;2022-11-20T09:54:30;21.05;;;18.77;;
56810;SDS011;42691;47.234;27.494;2022-11-20T09:57:02;20.85;;;18.65;;
56810;SDS011;42691;47.234;27.494;2022-11-20T09:59:43;20.00;;;17.58;;
56810;SDS011;42691;47.234;27.494;2022-11-20T10:07:37;21.00;;;17.63;;
56810;SDS011;42691;47.234;27.494;2022-11-20T10:10:03;24.77;;;20.08;;
56810;SDS011;42691;47.234;27.494;2022-11-20T10:15:07;26.63;;;18.83;;
56810;SDS011;42691;47.234;27.494;2022-11-20T10:31:28;18.77;;;14.05;;
56810;SDS011;42691;47.234;27.494;2022-11-20T10:33:58;18.30;;;16.33;;
56810;SDS011;42691;47.234;27.494;2022-11-20T10:36:33;17.67;;;13.65;;
56810;SDS011;42691;47.234;27.494;2022-11-20T10:39:06;13.80;;;10.30;;
56810;SDS011;42691;47.234;27.494;2022-11-20T10:41:41;14.00;;;10.63;;
56810;SDS011;42691;47.234;27.494;2022-11-20T10:44:26;18.83;;;16.95;;
56810;SDS011;42691;47.234;27.494;2022-11-20T10:47:13;29.43;;;24.00;;
56810;SDS011;42691;47.234;27.494;2022-11-20T10:49:40;22.27;;;19.92;;
56810;SDS011;42691;47.234;27.494;2022-11-20T10:52:25;28.08;;;22.23;;
56810;SDS011;42691;47.234;27.494;2022-11-20T11:00:24;26.90;;;23.48;;
56810;SDS011;42691;47.234;27.494;2022-11-20T11:02:50;35.28;;;25.35;;
56810;SDS011;42691;47.234;27.494;2022-11-20T11:05:38;27.88;;;23.83;;
56810;SDS011;42691;47.234;27.494;2022-11-20T11:08:13;30.00;;;24.17;;
56810;SDS011;42691;47.234;27.494;2022-11-20T11:13:29;34.85;;;25.92;;
56810;SDS011;42691;47.234;27.494;2022-11-20T11:15:55;29.17;;;22.77;;
56810;SDS011;42691;47.234;27.494;2022-11-20T11:18:25;23.27;;;20.83;;
56810;SDS011;42691;47.234;27.494;2022-11-20T11:20:54;28.90;;;20.15;;
56810;SDS011;42691;47.234;27.494;2022-11-20T11:26:00;27.80;;;19.85;;
56810;SDS011;42691;47.234;27.494;2022-11-20T11:28:27;25.35;;;18.30;;
56810;SDS011;42691;47.234;27.494;2022-11-20T11:30:53;19.42;;;17.05;;
56810;SDS011;42691;47.234;27.494;2022-11-20T11:33:21;23.52;;;16.13;;
56810;SDS011;42691;47.234;27.494;2022-11-20T11:35:54;19.27;;;15.38;;
56810;SDS011;42691;47.234;27.494;2022-11-20T11:38:40;22.42;;;17.52;;
56810;SDS011;42691;47.234;27.494;2022-11-20T11:41:09;26.08;;;19.20;;
56810;SDS011;42691;47.234;27.494;2022-11-20T11:43:48;22.73;;;19.88;;
56810;SDS011;42691;47.234;27.494;2022-11-20T11:46:35;24.80;;;19.05;;
56810;SDS011;42691;47.234;27.494;2022-11-20T11:51:44;19.40;;;15.98;;
56810;SDS011;42691;47.234;27.494;2022-11-20T12:04:57;21.30;;;19.00;;
56810;SDS011;42691;47.234;27.494;2022-11-20T12:07:58;22.00;;;17.60;;
56810;SDS011;42691;47.234;27.494;2022-11-20T12:10:45;22.40;;;18.63;;
56810;SDS011;42691;47.234;27.494;2022-11-20T12:13:25;17.15;;;14.75;;
56810;SDS011;42691;47.234;27.494;2022-11-20T12:15:52;19.02;;;16.52;;
56810;SDS011;42691;47.234;27.494;2022-11-20T12:18:18;20.30;;;18.02;;
56810;SDS011;42691;47.234;27.494;2022-11-20T12:20:50;16.25;;;14.35;;
56810;SDS011;42691;47.234;27.494;2022-11-20T12:39:42;19.92;;;14.02;;
56810;SDS011;42691;47.234;27.494;2022-11-20T12:48:40;16.98;;;15.23;;
56810;SDS011;42691;47.234;27.494;2022-11-20T12:53:42;18.45;;;16.10;;
56810;SDS011;42691;47.234;27.494;2022-11-20T13:04:08;23.40;;;17.90;;
56810;SDS011;42691;47.234;27.494;2022-11-20T13:06:39;23.10;;;16.50;;
56810;SDS011;42691;47.234;27.494;2022-11-20T13:09:08;23.38;;;18.38;;
56810;SDS011;42691;47.234;27.494;2022-11-20T13:11:43;25.83;;;18.88;;
56810;SDS011;42691;47.234;27.494;2022-11-20T13:19:50;17.58;;;15.38;;
56810;SDS011;42691;47.234;27.494;2022-11-20T13:22:52;22.33;;;14.85;;
56810;SDS011;42691;47.234;27.494;2022-11-20T13:25:27;17.40;;;15.40;;
56810;SDS011;42691;47.234;27.494;2022-11-20T13:27:54;20.70;;;15.50;;
56810;SDS011;42691;47.234;27.494;2022-11-20T13:30:25;23.90;;;16.80;;
56810;SDS011;42691;47.234;27.494;2022-11-20T13:32:55;19.83;;;17.55;;
56810;SDS011;42691;47.234;27.494;2022-11-20T13:36:04;17.65;;;14.13;;
56810;SDS011;42691;47.234;27.494;2022-11-20T13:38:19;26.35;;;16.98;;
56810;SDS011;42691;47.234;27.494;2022-11-20T13:45:58;15.98;;;13.98;;
56810;SDS011;42691;47.234;27.494;2022-11-20T13:48:25;17.23;;;13.73;;
56810;SDS011;42691;47.234;27.494;2022-11-20T13:51:04;15.70;;;13.55;;
56810;SDS011;42691;47.234;27.494;2022-11-20T13:56:38;19.15;;;12.20;;
56810;SDS011;42691;47.234;27.494;2022-11-20T13:59:12;20.08;;;13.90;;
56810;SDS011;42691;47.234;27.494;2022-11-20T14:01:57;20.25;;;17.23;;
56810;SDS011;42691;47.234;27.494;2022-11-20T14:04:35;21.90;;;17.98;;
56810;SDS011;42691;47.234;27.494;2022-11-20T14:07:06;23.73;;;14.45;;
56810;SDS011;42691;47.234;27.494;2022-11-20T14:09:32;21.15;;;16.38;;
56810;SDS011;42691;47.234;27.494;2022-11-20T14:11:59;19.70;;;12.32;;
56810;SDS011;42691;47.234;27.494;2022-11-20T14:14:28;15.52;;;13.10;;
56810;SDS011;42691;47.234;27.494;2022-11-20T14:17:07;17.02;;;13.35;;
56810;SDS011;42691;47.234;27.494;2022-11-20T14:19:42;19.85;;;14.75;;
56810;SDS011;42691;47.234;27.494;2022-11-20T14:24:39;20.42;;;14.55;;
56810;SDS011;42691;47.234;27.494;2022-11-20T14:27:04;21.40;;;14.95;;
56810;SDS011;42691;47.234;27.494;2022-11-20T14:29:36;18.75;;;15.00;;
56810;SDS011;42691;47.234;27.494;2022-11-20T14:32:03;15.93;;;14.38;;
56810;SDS011;42691;47.234;27.494;2022-11-20T14:34:30;19.10;;;12.48;;
56810;SDS011;42691;47.234;27.494;2022-11-20T14:37:01;21.98;;;12.68;;
56810;SDS011;42691;47.234;27.494;2022-11-20T14:42:02;16.92;;;13.70;;
56810;SDS011;42691;47.234;27.494;2022-11-20T14:44:36;19.88;;;13.77;;
56810;SDS011;42691;47.234;27.494;2022-11-20T14:47:02;15.77;;;12.43;;
56810;SDS011;42691;47.234;27.494;2022-11-20T14:49:29;17.75;;;15.77;;
56810;SDS011;42691;47.234;27.494;2022-11-20T14:52:00;18.73;;;14.40;;
56810;SDS011;42691;47.234;27.494;2022-11-20T14:54:27;18.83;;;13.57;;
56810;SDS011;42691;47.234;27.494;2022-11-20T14:56:57;16.15;;;12.23;;
56810;SDS011;42691;47.234;27.494;2022-11-20T14:59:25;17.48;;;13.75;;
56810;SDS011;42691;47.234;27.494;2022-11-20T15:01:58;17.00;;;12.27;;
56810;SDS011;42691;47.234;27.494;2022-11-20T15:04:26;18.63;;;14.25;;
56810;SDS011;42691;47.234;27.494;2022-11-20T15:06:52;16.02;;;14.30;;
56810;SDS011;42691;47.234;27.494;2022-11-20T15:09:19;17.92;;;13.20;;
56810;SDS011;42691;47.234;27.494;2022-11-20T15:11:55;11.95;;;10.48;;
56810;SDS011;42691;47.234;27.494;2022-11-20T15:14:23;15.50;;;12.05;;
56810;SDS011;42691;47.234;27.494;2022-11-20T15:16:49;13.10;;;10.35;;
56810;SDS011;42691;47.234;27.494;2022-11-20T15:19:22;23.08;;;13.98;;
56810;SDS011;42691;47.234;27.494;2022-11-20T15:21:49;16.58;;;12.52;;
56810;SDS011;42691;47.234;27.494;2022-11-20T15:24:15;14.07;;;11.30;;
56810;SDS011;42691;47.234;27.494;2022-11-20T15:26:41;28.35;;;17.85;;
56810;SDS011;42691;47.234;27.494;2022-11-20T15:29:11;27.17;;;16.90;;
56810;SDS011;42691;47.234;27.494;2022-11-20T15:31:38;18.77;;;15.98;;
56810;SDS011;42691;47.234;27.494;2022-11-20T15:34:16;20.35;;;18.23;;
56810;SDS011;42691;47.234;27.494;2022-11-20T15:36:42;31.52;;;8.80;;
56810;SDS011;42691;47.234;27.494;2022-11-20T15:39:08;24.88;;;16.67;;
56810;SDS011;42691;47.234;27.494;2022-11-20T15:41:34;18.27;;;15.45;;
56810;SDS011;42691;47.234;27.494;2022-11-20T15:44:01;18.33;;;16.42;;
56810;SDS011;42691;47.234;27.494;2022-11-20T15:46:27;21.05;;;16.60;;
56810;SDS011;42691;47.234;27.494;2022-11-20T15:49:02;21.98;;;19.33;;
56810;SDS011;42691;47.234;27.494;2022-11-20T15:51:29;18.02;;;15.07;;
56810;SDS011;42691;47.234;27.494;2022-11-20T15:53:57;14.90;;;12.73;;
56810;SDS011;42691;47.234;27.494;2022-11-20T15:56:23;15.77;;;11.65;;
56810;SDS011;42691;47.234;27.494;2022-11-20T15:58:49;16.50;;;13.13;;
56810;SDS011;42691;47.234;27.494;2022-11-20T16:01:18;20.98;;;15.55;;
56810;SDS011;42691;47.234;27.494;2022-11-20T16:03:47;19.63;;;14.93;;
56810;SDS011;42691;47.234;27.494;2022-11-20T16:06:13;21.23;;;14.25;;
56810;SDS011;42691;47.234;27.494;2022-11-20T16:08:41;17.00;;;13.63;;
56810;SDS011;42691;47.234;27.494;2022-11-20T16:11:06;22.98;;;12.48;;
56810;SDS011;42691;47.234;27.494;2022-11-20T16:13:34;15.85;;;12.80;;
56810;SDS011;42691;47.234;27.494;2022-11-20T16:16:22;17.25;;;14.43;;
56810;SDS011;42691;47.234;27.494;2022-11-20T16:18:53;22.25;;;18.25;;
56810;SDS011;42691;47.234;27.494;2022-11-20T16:21:18;22.13;;;16.67;;
56810;SDS011;42691;47.234;27.494;2022-11-20T16:23:43;23.00;;;16.38;;